sensor_id;sensor_type;location;lat;lon;timestamp;temperature;humidity
1417;DHT22;703;51.162;13.574;2023-06-22T00:01:48;19.50;99.90
1417;DHT22;703;51.162;13.574;2023-06-22T00:04:13;19.40;99.90
1417;DHT22;703;51.162;13.574;2023-06-22T00:06:38;19.40;99.90
1417;DHT22;703;51.162;13.574;2023-06-22T00:09:04;19.30;99.90
1417;DHT22;703;51.162;13.574;2023-06-22T00:11:32;19.30;99.90
1417;DHT22;703;51.162;13.574;2023-06-22T00:13:58;19.30;99.90
1417;DHT22;703;51.162;13.574;2023-06-22T00:16:24;19.20;99.90
1417;DHT22;703;51.162;13.574;2023-06-22T00:18:49;19.10;99.90
1417;DHT22;703;51.162;13.574;2023-06-22T00:21:15;19.10;99.90
1417;DHT22;703;51.162;13.574;2023-06-22T00:23:40;19.00;99.90
1417;DHT22;703;51.162;13.574;2023-06-22T00:26:06;19.00;99.90
1417;DHT22;703;51.162;13.574;2023-06-22T00:28:32;18.90;99.90
1417;DHT22;703;51.162;13.574;2023-06-22T00:30:57;18.90;99.90
1417;DHT22;703;51.162;13.574;2023-06-22T00:33:23;18.90;99.90
1417;DHT22;703;51.162;13.574;2023-06-22T00:35:48;18.90;99.90
1417;DHT22;703;51.162;13.574;2023-06-22T00:38:18;18.80;99.90
1417;DHT22;703;51.162;13.574;2023-06-22T00:40:43;18.80;99.90
1417;DHT22;703;51.162;13.574;2023-06-22T00:43:09;18.70;99.90
1417;DHT22;703;51.162;13.574;2023-06-22T00:45:34;18.70;99.90
1417;DHT22;703;51.162;13.574;2023-06-22T00:48:00;18.70;99.90
1417;DHT22;703;51.162;13.574;2023-06-22T00:50:27;18.70;99.90
1417;DHT22;703;51.162;13.574;2023-06-22T00:52:57;18.70;99.90
1417;DHT22;703;51.162;13.574;2023-06-22T00:55:23;18.70;99.90
1417;DHT22;703;51.162;13.574;2023-06-22T00:57:51;18.70;99.90
1417;DHT22;703;51.162;13.574;2023-06-22T01:00:20;18.70;99.90
1417;DHT22;703;51.162;13.574;2023-06-22T01:02:46;18.70;99.90
1417;DHT22;703;51.162;13.574;2023-06-22T01:05:16;18.70;99.90
1417;DHT22;703;51.162;13.574;2023-06-22T01:07:46;17.70;99.90
1417;DHT22;703;51.162;13.574;2023-06-22T01:12:50;18.60;99.90
1417;DHT22;703;51.162;13.574;2023-06-22T01:15:37;18.50;99.90
1417;DHT22;703;51.162;13.574;2023-06-22T01:18:05;18.50;99.90
1417;DHT22;703;51.162;13.574;2023-06-22T01:20:32;18.50;99.90
1417;DHT22;703;51.162;13.574;2023-06-22T01:23:17;18.50;99.90
1417;DHT22;703;51.162;13.574;2023-06-22T01:25:54;18.50;99.90
1417;DHT22;703;51.162;13.574;2023-06-22T01:30:48;18.40;99.90
1417;DHT22;703;51.162;13.574;2023-06-22T01:33:14;18.40;99.90
1417;DHT22;703;51.162;13.574;2023-06-22T01:35:40;18.40;99.90
1417;DHT22;703;51.162;13.574;2023-06-22T01:38:06;18.40;99.90
1417;DHT22;703;51.162;13.574;2023-06-22T01:40:33;18.30;99.90
1417;DHT22;703;51.162;13.574;2023-06-22T01:43:02;18.30;99.90
1417;DHT22;703;51.162;13.574;2023-06-22T01:45:28;18.40;99.90
1417;DHT22;703;51.162;13.574;2023-06-22T01:47:54;18.30;99.90
1417;DHT22;703;51.162;13.574;2023-06-22T01:50:19;18.30;99.90
1417;DHT22;703;51.162;13.574;2023-06-22T01:52:45;18.30;99.90
1417;DHT22;703;51.162;13.574;2023-06-22T01:55:11;18.20;99.90
1417;DHT22;703;51.162;13.574;2023-06-22T01:57:36;18.20;99.90
1417;DHT22;703;51.162;13.574;2023-06-22T02:00:04;18.20;99.90
1417;DHT22;703;51.162;13.574;2023-06-22T02:02:43;18.10;99.90
1417;DHT22;703;51.162;13.574;2023-06-22T02:05:09;18.10;99.90
1417;DHT22;703;51.162;13.574;2023-06-22T02:07:39;18.10;99.90
1417;DHT22;703;51.162;13.574;2023-06-22T02:10:06;18.10;99.90
1417;DHT22;703;51.162;13.574;2023-06-22T02:12:32;18.10;99.90
1417;DHT22;703;51.162;13.574;2023-06-22T02:14:58;18.00;99.90
1417;DHT22;703;51.162;13.574;2023-06-22T02:17:26;18.00;99.90
1417;DHT22;703;51.162;13.574;2023-06-22T02:19:51;18.00;99.90
1417;DHT22;703;51.162;13.574;2023-06-22T02:22:17;18.00;99.90
1417;DHT22;703;51.162;13.574;2023-06-22T02:24:43;17.90;99.90
1417;DHT22;703;51.162;13.574;2023-06-22T02:27:08;17.90;99.90
1417;DHT22;703;51.162;13.574;2023-06-22T02:29:34;17.80;99.90
1417;DHT22;703;51.162;13.574;2023-06-22T02:31:59;17.80;99.90
1417;DHT22;703;51.162;13.574;2023-06-22T02:34:25;17.80;99.90
1417;DHT22;703;51.162;13.574;2023-06-22T02:36:50;17.80;99.90
1417;DHT22;703;51.162;13.574;2023-06-22T02:39:20;17.80;99.90
1417;DHT22;703;51.162;13.574;2023-06-22T02:41:47;17.70;99.90
1417;DHT22;703;51.162;13.574;2023-06-22T02:44:12;17.80;99.90
1417;DHT22;703;51.162;13.574;2023-06-22T02:46:38;17.80;99.90
1417;DHT22;703;51.162;13.574;2023-06-22T02:49:03;17.70;99.90
1417;DHT22;703;51.162;13.574;2023-06-22T02:51:30;17.70;99.90
1417;DHT22;703;51.162;13.574;2023-06-22T02:53:57;17.70;99.90
1417;DHT22;703;51.162;13.574;2023-06-22T02:56:22;17.60;99.90
1417;DHT22;703;51.162;13.574;2023-06-22T02:58:53;17.60;99.90
1417;DHT22;703;51.162;13.574;2023-06-22T03:01:19;17.60;99.90
1417;DHT22;703;51.162;13.574;2023-06-22T03:03:49;18.40;99.90
1417;DHT22;703;51.162;13.574;2023-06-22T03:06:15;17.60;99.90
1417;DHT22;703;51.162;13.574;2023-06-22T03:08:40;17.60;99.90
1417;DHT22;703;51.162;13.574;2023-06-22T03:11:07;17.60;99.90
1417;DHT22;703;51.162;13.574;2023-06-22T03:13:33;17.60;99.90
1417;DHT22;703;51.162;13.574;2023-06-22T03:15:58;17.60;99.90
1417;DHT22;703;51.162;13.574;2023-06-22T03:18:24;17.60;99.90
1417;DHT22;703;51.162;13.574;2023-06-22T03:20:49;17.60;99.90
1417;DHT22;703;51.162;13.574;2023-06-22T03:23:15;17.60;99.90
1417;DHT22;703;51.162;13.574;2023-06-22T03:25:41;17.60;99.90
1417;DHT22;703;51.162;13.574;2023-06-22T03:28:06;17.60;99.90
1417;DHT22;703;51.162;13.574;2023-06-22T03:30:32;17.60;99.90
1417;DHT22;703;51.162;13.574;2023-06-22T03:32:57;17.60;99.90
1417;DHT22;703;51.162;13.574;2023-06-22T03:35:23;17.60;99.90
1417;DHT22;703;51.162;13.574;2023-06-22T03:37:48;17.60;99.90
1417;DHT22;703;51.162;13.574;2023-06-22T03:40:17;17.60;99.90
1417;DHT22;703;51.162;13.574;2023-06-22T03:42:43;17.60;99.90
1417;DHT22;703;51.162;13.574;2023-06-22T03:45:08;17.60;99.90
1417;DHT22;703;51.162;13.574;2023-06-22T03:47:34;17.70;99.90
1417;DHT22;703;51.162;13.574;2023-06-22T03:49:59;17.80;99.90
1417;DHT22;703;51.162;13.574;2023-06-22T03:52:25;17.80;99.90
1417;DHT22;703;51.162;13.574;2023-06-22T03:54:50;17.90;99.90
1417;DHT22;703;51.162;13.574;2023-06-22T03:57:16;17.90;99.90
1417;DHT22;703;51.162;13.574;2023-06-22T03:59:41;17.90;99.90
1417;DHT22;703;51.162;13.574;2023-06-22T04:02:07;17.90;99.90
1417;DHT22;703;51.162;13.574;2023-06-22T04:04:32;18.00;99.90
1417;DHT22;703;51.162;13.574;2023-06-22T04:07:00;18.10;99.90
1417;DHT22;703;51.162;13.574;2023-06-22T04:09:26;18.10;99.90
1417;DHT22;703;51.162;13.574;2023-06-22T04:11:51;18.20;99.90
1417;DHT22;703;51.162;13.574;2023-06-22T04:14:17;18.20;99.90
1417;DHT22;703;51.162;13.574;2023-06-22T04:16:43;18.20;99.90
1417;DHT22;703;51.162;13.574;2023-06-22T04:19:08;18.20;99.90
1417;DHT22;703;51.162;13.574;2023-06-22T04:21:39;18.30;99.90
1417;DHT22;703;51.162;13.574;2023-06-22T04:24:04;18.20;99.90
1417;DHT22;703;51.162;13.574;2023-06-22T04:26:30;18.20;99.90
1417;DHT22;703;51.162;13.574;2023-06-22T04:28:55;18.20;99.90
1417;DHT22;703;51.162;13.574;2023-06-22T04:31:21;18.20;99.90
1417;DHT22;703;51.162;13.574;2023-06-22T04:33:47;18.30;99.90
1417;DHT22;703;51.162;13.574;2023-06-22T04:36:12;18.30;99.90
1417;DHT22;703;51.162;13.574;2023-06-22T04:38:39;18.40;99.90
1417;DHT22;703;51.162;13.574;2023-06-22T04:41:04;18.40;99.90
1417;DHT22;703;51.162;13.574;2023-06-22T04:43:29;18.50;99.90
1417;DHT22;703;51.162;13.574;2023-06-22T04:45:58;18.50;99.90
1417;DHT22;703;51.162;13.574;2023-06-22T04:48:29;18.60;99.90
1417;DHT22;703;51.162;13.574;2023-06-22T04:50:58;18.70;99.90
1417;DHT22;703;51.162;13.574;2023-06-22T04:53:28;18.80;99.90
1417;DHT22;703;51.162;13.574;2023-06-22T04:55:55;18.90;99.90
1417;DHT22;703;51.162;13.574;2023-06-22T04:58:20;19.00;99.90
1417;DHT22;703;51.162;13.574;2023-06-22T05:00:47;18.90;99.90
1417;DHT22;703;51.162;13.574;2023-06-22T05:03:12;18.90;99.90
1417;DHT22;703;51.162;13.574;2023-06-22T05:05:38;18.90;99.90
1417;DHT22;703;51.162;13.574;2023-06-22T05:08:03;19.10;99.90
1417;DHT22;703;51.162;13.574;2023-06-22T05:10:32;19.40;99.90
1417;DHT22;703;51.162;13.574;2023-06-22T05:12:58;19.40;99.90
1417;DHT22;703;51.162;13.574;2023-06-22T05:15:24;19.40;99.90
1417;DHT22;703;51.162;13.574;2023-06-22T05:17:53;19.40;99.90
1417;DHT22;703;51.162;13.574;2023-06-22T05:20:19;19.40;99.90
1417;DHT22;703;51.162;13.574;2023-06-22T05:22:44;19.50;99.90
1417;DHT22;703;51.162;13.574;2023-06-22T05:25:10;19.60;99.90
1417;DHT22;703;51.162;13.574;2023-06-22T05:27:36;19.60;99.90
1417;DHT22;703;51.162;13.574;2023-06-22T05:30:08;19.80;99.90
1417;DHT22;703;51.162;13.574;2023-06-22T05:32:34;19.80;99.90
1417;DHT22;703;51.162;13.574;2023-06-22T05:34:59;19.90;99.90
1417;DHT22;703;51.162;13.574;2023-06-22T05:37:25;20.10;99.90
1417;DHT22;703;51.162;13.574;2023-06-22T05:39:51;20.40;99.90
1417;DHT22;703;51.162;13.574;2023-06-22T05:42:16;20.30;99.90
1417;DHT22;703;51.162;13.574;2023-06-22T05:44:42;20.40;99.90
1417;DHT22;703;51.162;13.574;2023-06-22T05:47:07;20.40;99.90
1417;DHT22;703;51.162;13.574;2023-06-22T05:49:33;20.70;99.90
1417;DHT22;703;51.162;13.574;2023-06-22T05:51:59;20.80;99.90
1417;DHT22;703;51.162;13.574;2023-06-22T05:54:27;21.00;99.90
1417;DHT22;703;51.162;13.574;2023-06-22T05:56:52;20.90;99.90
1417;DHT22;703;51.162;13.574;2023-06-22T05:59:18;21.00;99.90
1417;DHT22;703;51.162;13.574;2023-06-22T06:01:44;21.10;99.90
1417;DHT22;703;51.162;13.574;2023-06-22T06:04:09;21.20;99.90
1417;DHT22;703;51.162;13.574;2023-06-22T06:06:35;21.40;99.90
1417;DHT22;703;51.162;13.574;2023-06-22T06:09:05;21.60;99.90
1417;DHT22;703;51.162;13.574;2023-06-22T06:11:30;21.80;99.90
1417;DHT22;703;51.162;13.574;2023-06-22T06:13:56;22.10;99.90
1417;DHT22;703;51.162;13.574;2023-06-22T06:16:22;22.40;99.90
1417;DHT22;703;51.162;13.574;2023-06-22T06:18:47;22.70;99.90
1417;DHT22;703;51.162;13.574;2023-06-22T06:21:15;23.10;99.90
1417;DHT22;703;51.162;13.574;2023-06-22T06:23:41;23.50;99.90
1417;DHT22;703;51.162;13.574;2023-06-22T06:26:07;23.70;99.90
1417;DHT22;703;51.162;13.574;2023-06-22T06:28:36;23.60;99.90
1417;DHT22;703;51.162;13.574;2023-06-22T06:31:02;23.50;99.90
1417;DHT22;703;51.162;13.574;2023-06-22T06:33:27;23.50;99.90
1417;DHT22;703;51.162;13.574;2023-06-22T06:35:53;23.50;99.90
1417;DHT22;703;51.162;13.574;2023-06-22T06:38:18;23.60;99.90
1417;DHT22;703;51.162;13.574;2023-06-22T06:40:44;23.70;99.90
1417;DHT22;703;51.162;13.574;2023-06-22T06:43:10;23.70;99.90
1417;DHT22;703;51.162;13.574;2023-06-22T06:45:35;23.70;99.90
1417;DHT22;703;51.162;13.574;2023-06-22T06:48:01;23.70;99.90
1417;DHT22;703;51.162;13.574;2023-06-22T06:50:27;23.90;99.90
1417;DHT22;703;51.162;13.574;2023-06-22T06:52:53;23.90;99.90
1417;DHT22;703;51.162;13.574;2023-06-22T06:55:18;24.00;99.90
1417;DHT22;703;51.162;13.574;2023-06-22T06:57:44;24.00;99.90
1417;DHT22;703;51.162;13.574;2023-06-22T07:00:12;24.10;99.90
1417;DHT22;703;51.162;13.574;2023-06-22T07:02:39;24.10;99.90
1417;DHT22;703;51.162;13.574;2023-06-22T07:05:07;24.20;99.90
1417;DHT22;703;51.162;13.574;2023-06-22T07:07:33;24.40;99.90
1417;DHT22;703;51.162;13.574;2023-06-22T07:09:59;24.80;99.90
1417;DHT22;703;51.162;13.574;2023-06-22T07:12:24;24.80;99.90
1417;DHT22;703;51.162;13.574;2023-06-22T07:14:51;24.90;99.90
1417;DHT22;703;51.162;13.574;2023-06-22T07:17:17;24.90;99.90
1417;DHT22;703;51.162;13.574;2023-06-22T07:19:42;25.00;99.90
1417;DHT22;703;51.162;13.574;2023-06-22T07:22:08;25.30;99.90
1417;DHT22;703;51.162;13.574;2023-06-22T07:24:33;25.50;99.90
1417;DHT22;703;51.162;13.574;2023-06-22T07:26:59;25.70;99.90
1417;DHT22;703;51.162;13.574;2023-06-22T07:29:25;25.80;99.90
1417;DHT22;703;51.162;13.574;2023-06-22T07:31:52;25.70;99.90
1417;DHT22;703;51.162;13.574;2023-06-22T07:34:20;25.70;99.90
1417;DHT22;703;51.162;13.574;2023-06-22T07:36:46;25.60;99.90
1417;DHT22;703;51.162;13.574;2023-06-22T07:39:11;25.60;99.90
1417;DHT22;703;51.162;13.574;2023-06-22T07:41:38;25.70;99.90
1417;DHT22;703;51.162;13.574;2023-06-22T07:44:04;26.10;99.90
1417;DHT22;703;51.162;13.574;2023-06-22T07:46:30;26.40;99.90
1417;DHT22;703;51.162;13.574;2023-06-22T07:48:58;26.50;99.90
1417;DHT22;703;51.162;13.574;2023-06-22T07:51:25;26.60;99.90
1417;DHT22;703;51.162;13.574;2023-06-22T07:53:50;26.70;99.90
1417;DHT22;703;51.162;13.574;2023-06-22T07:56:16;26.60;99.90
1417;DHT22;703;51.162;13.574;2023-06-22T07:58:45;26.80;99.90
1417;DHT22;703;51.162;13.574;2023-06-22T08:01:11;26.70;99.90
1417;DHT22;703;51.162;13.574;2023-06-22T08:03:37;26.90;99.90
1417;DHT22;703;51.162;13.574;2023-06-22T08:06:02;27.10;99.90
1417;DHT22;703;51.162;13.574;2023-06-22T08:08:28;27.10;99.90
1417;DHT22;703;51.162;13.574;2023-06-22T08:10:54;26.90;99.90
1417;DHT22;703;51.162;13.574;2023-06-22T08:13:19;27.20;99.90
1417;DHT22;703;51.162;13.574;2023-06-22T08:15:45;27.40;99.90
1417;DHT22;703;51.162;13.574;2023-06-22T08:18:10;27.30;99.90
1417;DHT22;703;51.162;13.574;2023-06-22T08:20:36;27.80;99.90
1417;DHT22;703;51.162;13.574;2023-06-22T08:23:01;28.10;99.90
1417;DHT22;703;51.162;13.574;2023-06-22T08:25:32;27.80;99.90
1417;DHT22;703;51.162;13.574;2023-06-22T08:27:58;27.90;99.90
1417;DHT22;703;51.162;13.574;2023-06-22T08:30:23;28.10;99.90
1417;DHT22;703;51.162;13.574;2023-06-22T08:32:49;28.30;99.90
1417;DHT22;703;51.162;13.574;2023-06-22T08:35:14;28.30;99.90
1417;DHT22;703;51.162;13.574;2023-06-22T08:37:40;28.20;99.90
1417;DHT22;703;51.162;13.574;2023-06-22T08:40:06;28.40;99.90
1417;DHT22;703;51.162;13.574;2023-06-22T08:42:33;28.30;99.90
1417;DHT22;703;51.162;13.574;2023-06-22T08:44:59;28.50;99.90
1417;DHT22;703;51.162;13.574;2023-06-22T08:47:24;28.70;99.90
1417;DHT22;703;51.162;13.574;2023-06-22T08:49:50;28.80;99.90
1417;DHT22;703;51.162;13.574;2023-06-22T08:52:17;28.70;99.90
1417;DHT22;703;51.162;13.574;2023-06-22T08:54:42;28.60;99.90
1417;DHT22;703;51.162;13.574;2023-06-22T08:57:08;28.70;99.90
1417;DHT22;703;51.162;13.574;2023-06-22T08:59:33;29.20;99.90
1417;DHT22;703;51.162;13.574;2023-06-22T09:01:58;29.50;99.90
1417;DHT22;703;51.162;13.574;2023-06-22T09:04:24;29.30;99.90
1417;DHT22;703;51.162;13.574;2023-06-22T09:06:50;29.20;99.90
1417;DHT22;703;51.162;13.574;2023-06-22T09:09:17;28.50;99.90
1417;DHT22;703;51.162;13.574;2023-06-22T09:11:43;28.80;99.90
1417;DHT22;703;51.162;13.574;2023-06-22T09:14:09;28.90;99.90
1417;DHT22;703;51.162;13.574;2023-06-22T09:16:35;28.50;99.90
1417;DHT22;703;51.162;13.574;2023-06-22T09:19:00;28.60;99.90
1417;DHT22;703;51.162;13.574;2023-06-22T09:21:26;29.40;99.90
1417;DHT22;703;51.162;13.574;2023-06-22T09:23:51;29.80;99.90
1417;DHT22;703;51.162;13.574;2023-06-22T09:26:17;29.20;99.90
1417;DHT22;703;51.162;13.574;2023-06-22T09:28:43;28.90;99.90
1417;DHT22;703;51.162;13.574;2023-06-22T09:31:08;29.00;99.90
1417;DHT22;703;51.162;13.574;2023-06-22T09:33:34;29.70;99.90
1417;DHT22;703;51.162;13.574;2023-06-22T09:36:00;29.70;99.90
1417;DHT22;703;51.162;13.574;2023-06-22T09:38:25;29.90;99.90
1417;DHT22;703;51.162;13.574;2023-06-22T09:40:51;29.80;99.90
1417;DHT22;703;51.162;13.574;2023-06-22T09:43:16;29.30;99.90
1417;DHT22;703;51.162;13.574;2023-06-22T09:45:42;29.10;99.90
1417;DHT22;703;51.162;13.574;2023-06-22T09:48:08;29.60;99.90
1417;DHT22;703;51.162;13.574;2023-06-22T09:50:35;30.10;99.90
1417;DHT22;703;51.162;13.574;2023-06-22T09:53:00;30.60;99.90
1417;DHT22;703;51.162;13.574;2023-06-22T09:55:26;30.40;99.90
1417;DHT22;703;51.162;13.574;2023-06-22T09:57:51;29.60;99.90
1417;DHT22;703;51.162;13.574;2023-06-22T10:00:17;29.60;99.90
1417;DHT22;703;51.162;13.574;2023-06-22T10:02:44;29.60;99.90
1417;DHT22;703;51.162;13.574;2023-06-22T10:05:09;29.20;99.90
1417;DHT22;703;51.162;13.574;2023-06-22T10:07:35;28.90;99.90
1417;DHT22;703;51.162;13.574;2023-06-22T10:10:05;29.40;99.90
1417;DHT22;703;51.162;13.574;2023-06-22T10:12:31;29.90;99.90
1417;DHT22;703;51.162;13.574;2023-06-22T10:14:56;30.20;99.90
1417;DHT22;703;51.162;13.574;2023-06-22T10:17:22;30.50;99.90
1417;DHT22;703;51.162;13.574;2023-06-22T10:19:47;30.70;99.90
1417;DHT22;703;51.162;13.574;2023-06-22T10:22:13;30.50;99.90
1417;DHT22;703;51.162;13.574;2023-06-22T10:24:39;30.80;99.90
1417;DHT22;703;51.162;13.574;2023-06-22T10:27:12;31.10;99.90
1417;DHT22;703;51.162;13.574;2023-06-22T10:29:38;30.30;99.90
1417;DHT22;703;51.162;13.574;2023-06-22T10:32:04;30.70;99.90
1417;DHT22;703;51.162;13.574;2023-06-22T10:34:30;30.20;99.90
1417;DHT22;703;51.162;13.574;2023-06-22T10:36:55;30.90;99.90
1417;DHT22;703;51.162;13.574;2023-06-22T10:39:21;30.60;99.90
1417;DHT22;703;51.162;13.574;2023-06-22T10:41:46;31.30;99.90
1417;DHT22;703;51.162;13.574;2023-06-22T10:44:12;31.50;99.90
1417;DHT22;703;51.162;13.574;2023-06-22T10:46:38;31.40;99.90
1417;DHT22;703;51.162;13.574;2023-06-22T10:49:04;30.60;99.90
1417;DHT22;703;51.162;13.574;2023-06-22T10:51:30;30.30;99.90
1417;DHT22;703;51.162;13.574;2023-06-22T10:53:56;30.80;99.90
1417;DHT22;703;51.162;13.574;2023-06-22T10:56:22;30.50;99.90
1417;DHT22;703;51.162;13.574;2023-06-22T10:58:47;31.40;99.90
1417;DHT22;703;51.162;13.574;2023-06-22T11:01:13;31.70;99.90
1417;DHT22;703;51.162;13.574;2023-06-22T11:03:38;31.70;99.90
1417;DHT22;703;51.162;13.574;2023-06-22T11:06:04;31.40;99.90
1417;DHT22;703;51.162;13.574;2023-06-22T11:08:29;31.50;99.90
1417;DHT22;703;51.162;13.574;2023-06-22T11:10:55;31.70;99.90
1417;DHT22;703;51.162;13.574;2023-06-22T11:13:20;32.00;99.90
1417;DHT22;703;51.162;13.574;2023-06-22T11:15:46;32.50;99.90
1417;DHT22;703;51.162;13.574;2023-06-22T11:18:14;32.40;99.90
1417;DHT22;703;51.162;13.574;2023-06-22T11:20:40;32.40;99.90
1417;DHT22;703;51.162;13.574;2023-06-22T11:23:06;32.10;99.90
1417;DHT22;703;51.162;13.574;2023-06-22T11:25:32;32.50;99.90
1417;DHT22;703;51.162;13.574;2023-06-22T11:28:01;32.40;99.90
1417;DHT22;703;51.162;13.574;2023-06-22T11:30:27;33.10;99.90
1417;DHT22;703;51.162;13.574;2023-06-22T11:32:52;32.70;99.90
1417;DHT22;703;51.162;13.574;2023-06-22T11:35:18;32.40;99.90
1417;DHT22;703;51.162;13.574;2023-06-22T11:37:43;32.80;99.90
1417;DHT22;703;51.162;13.574;2023-06-22T11:40:09;33.60;99.90
1417;DHT22;703;51.162;13.574;2023-06-22T11:42:35;32.70;99.90
1417;DHT22;703;51.162;13.574;2023-06-22T11:45:01;31.80;99.90
1417;DHT22;703;51.162;13.574;2023-06-22T11:47:27;31.50;99.90
1417;DHT22;703;51.162;13.574;2023-06-22T11:49:52;31.10;99.90
1417;DHT22;703;51.162;13.574;2023-06-22T11:52:18;32.00;99.90
1417;DHT22;703;51.162;13.574;2023-06-22T11:54:44;31.70;99.90
1417;DHT22;703;51.162;13.574;2023-06-22T11:57:11;31.20;99.90
1417;DHT22;703;51.162;13.574;2023-06-22T11:59:36;31.30;99.90
1417;DHT22;703;51.162;13.574;2023-06-22T12:02:02;31.20;99.90
1417;DHT22;703;51.162;13.574;2023-06-22T12:04:28;31.70;99.90
1417;DHT22;703;51.162;13.574;2023-06-22T12:06:54;31.90;99.90
1417;DHT22;703;51.162;13.574;2023-06-22T12:09:19;32.30;99.90
1417;DHT22;703;51.162;13.574;2023-06-22T12:11:45;32.20;99.90
1417;DHT22;703;51.162;13.574;2023-06-22T12:14:10;31.80;99.90
1417;DHT22;703;51.162;13.574;2023-06-22T12:16:36;31.40;99.90
1417;DHT22;703;51.162;13.574;2023-06-22T12:19:01;31.90;99.90
1417;DHT22;703;51.162;13.574;2023-06-22T12:21:27;31.20;99.90
1417;DHT22;703;51.162;13.574;2023-06-22T12:23:53;31.00;99.90
1417;DHT22;703;51.162;13.574;2023-06-22T12:26:18;31.20;99.90
1417;DHT22;703;51.162;13.574;2023-06-22T12:28:44;32.20;99.90
1417;DHT22;703;51.162;13.574;2023-06-22T12:31:09;31.60;99.90
1417;DHT22;703;51.162;13.574;2023-06-22T12:33:35;32.30;99.90
1417;DHT22;703;51.162;13.574;2023-06-22T12:36:01;32.60;99.90
1417;DHT22;703;51.162;13.574;2023-06-22T12:38:26;31.70;99.90
1417;DHT22;703;51.162;13.574;2023-06-22T12:40:52;32.10;99.90
1417;DHT22;703;51.162;13.574;2023-06-22T12:43:17;32.40;99.90
1417;DHT22;703;51.162;13.574;2023-06-22T12:45:43;32.40;99.90
1417;DHT22;703;51.162;13.574;2023-06-22T12:48:08;33.10;99.90
1417;DHT22;703;51.162;13.574;2023-06-22T12:50:34;33.10;99.90
1417;DHT22;703;51.162;13.574;2023-06-22T12:52:59;33.30;99.90
1417;DHT22;703;51.162;13.574;2023-06-22T12:55:27;33.30;99.90
1417;DHT22;703;51.162;13.574;2023-06-22T12:57:52;32.50;99.90
1417;DHT22;703;51.162;13.574;2023-06-22T13:00:18;32.90;99.90
1417;DHT22;703;51.162;13.574;2023-06-22T13:02:44;33.20;99.90
1417;DHT22;703;51.162;13.574;2023-06-22T13:05:09;33.60;99.90
1417;DHT22;703;51.162;13.574;2023-06-22T13:07:34;33.70;99.90
1417;DHT22;703;51.162;13.574;2023-06-22T13:10:00;33.40;99.90
1417;DHT22;703;51.162;13.574;2023-06-22T13:12:25;33.10;99.90
1417;DHT22;703;51.162;13.574;2023-06-22T13:14:51;32.60;99.90
1417;DHT22;703;51.162;13.574;2023-06-22T13:17:16;32.70;99.90
1417;DHT22;703;51.162;13.574;2023-06-22T13:19:42;33.00;99.90
1417;DHT22;703;51.162;13.574;2023-06-22T13:24:53;33.80;99.90
1417;DHT22;703;51.162;13.574;2023-06-22T13:27:19;34.00;99.90
1417;DHT22;703;51.162;13.574;2023-06-22T13:29:44;34.00;99.90
1417;DHT22;703;51.162;13.574;2023-06-22T13:32:09;34.30;99.90
1417;DHT22;703;51.162;13.574;2023-06-22T13:34:35;33.80;99.90
1417;DHT22;703;51.162;13.574;2023-06-22T13:37:00;33.60;99.90
1417;DHT22;703;51.162;13.574;2023-06-22T13:39:28;33.60;99.90
1417;DHT22;703;51.162;13.574;2023-06-22T13:41:53;32.90;99.90
1417;DHT22;703;51.162;13.574;2023-06-22T13:44:19;32.40;99.90
1417;DHT22;703;51.162;13.574;2023-06-22T13:46:45;31.90;99.90
1417;DHT22;703;51.162;13.574;2023-06-22T13:49:10;31.90;99.90
1417;DHT22;703;51.162;13.574;2023-06-22T13:51:36;31.90;99.90
1417;DHT22;703;51.162;13.574;2023-06-22T13:54:01;32.00;99.90
1417;DHT22;703;51.162;13.574;2023-06-22T13:56:27;32.80;99.90
1417;DHT22;703;51.162;13.574;2023-06-22T13:58:52;33.60;99.90
1417;DHT22;703;51.162;13.574;2023-06-22T14:01:18;33.50;99.90
1417;DHT22;703;51.162;13.574;2023-06-22T14:03:43;33.80;99.90
1417;DHT22;703;51.162;13.574;2023-06-22T14:06:12;34.00;99.90
1417;DHT22;703;51.162;13.574;2023-06-22T14:08:37;33.70;99.90
1417;DHT22;703;51.162;13.574;2023-06-22T14:11:03;33.80;99.90
1417;DHT22;703;51.162;13.574;2023-06-22T14:13:28;33.90;99.90
1417;DHT22;703;51.162;13.574;2023-06-22T14:15:54;34.10;99.90
1417;DHT22;703;51.162;13.574;2023-06-22T14:18:19;33.20;99.90
1417;DHT22;703;51.162;13.574;2023-06-22T14:20:48;33.70;99.90
1417;DHT22;703;51.162;13.574;2023-06-22T14:23:13;33.00;99.90
1417;DHT22;703;51.162;13.574;2023-06-22T14:25:39;32.70;99.90
1417;DHT22;703;51.162;13.574;2023-06-22T14:28:05;32.50;99.90
1417;DHT22;703;51.162;13.574;2023-06-22T14:30:30;32.50;99.90
1417;DHT22;703;51.162;13.574;2023-06-22T14:32:56;32.70;99.90
1417;DHT22;703;51.162;13.574;2023-06-22T14:35:21;32.50;99.90
1417;DHT22;703;51.162;13.574;2023-06-22T14:37:47;32.70;99.90
1417;DHT22;703;51.162;13.574;2023-06-22T14:40:12;32.90;99.90
1417;DHT22;703;51.162;13.574;2023-06-22T14:42:38;32.70;99.90
1417;DHT22;703;51.162;13.574;2023-06-22T14:45:03;33.10;99.90
1417;DHT22;703;51.162;13.574;2023-06-22T14:47:29;33.20;99.90
1417;DHT22;703;51.162;13.574;2023-06-22T14:49:54;32.90;99.90
1417;DHT22;703;51.162;13.574;2023-06-22T14:52:20;33.00;99.90
1417;DHT22;703;51.162;13.574;2023-06-22T14:54:45;32.70;99.90
1417;DHT22;703;51.162;13.574;2023-06-22T14:57:11;32.30;99.90
1417;DHT22;703;51.162;13.574;2023-06-22T14:59:36;31.50;99.90
1417;DHT22;703;51.162;13.574;2023-06-22T15:02:02;31.70;99.90
1417;DHT22;703;51.162;13.574;2023-06-22T15:04:27;32.50;99.90
1417;DHT22;703;51.162;13.574;2023-06-22T15:06:57;32.80;99.90
1417;DHT22;703;51.162;13.574;2023-06-22T15:09:22;32.80;99.90
1417;DHT22;703;51.162;13.574;2023-06-22T15:11:48;33.00;99.90
1417;DHT22;703;51.162;13.574;2023-06-22T15:14:13;33.10;99.90
1417;DHT22;703;51.162;13.574;2023-06-22T15:16:39;33.30;99.90
1417;DHT22;703;51.162;13.574;2023-06-22T15:19:05;33.50;99.90
1417;DHT22;703;51.162;13.574;2023-06-22T15:21:30;33.40;99.90
1417;DHT22;703;51.162;13.574;2023-06-22T15:23:56;33.60;99.90
1417;DHT22;703;51.162;13.574;2023-06-22T15:26:21;33.30;99.90
1417;DHT22;703;51.162;13.574;2023-06-22T15:28:47;33.20;99.90
1417;DHT22;703;51.162;13.574;2023-06-22T15:31:13;33.00;99.90
1417;DHT22;703;51.162;13.574;2023-06-22T15:33:38;33.10;99.90
1417;DHT22;703;51.162;13.574;2023-06-22T15:36:04;33.10;99.90
1417;DHT22;703;51.162;13.574;2023-06-22T15:38:32;33.00;99.90
1417;DHT22;703;51.162;13.574;2023-06-22T15:40:57;32.90;99.90
1417;DHT22;703;51.162;13.574;2023-06-22T15:43:23;32.50;99.90
1417;DHT22;703;51.162;13.574;2023-06-22T15:45:48;32.70;99.90
1417;DHT22;703;51.162;13.574;2023-06-22T15:48:14;32.60;99.90
1417;DHT22;703;51.162;13.574;2023-06-22T15:50:40;32.70;99.90
1417;DHT22;703;51.162;13.574;2023-06-22T15:53:05;33.10;99.90
1417;DHT22;703;51.162;13.574;2023-06-22T15:55:31;32.90;99.90
1417;DHT22;703;51.162;13.574;2023-06-22T15:57:57;33.00;99.90
1417;DHT22;703;51.162;13.574;2023-06-22T16:00:22;33.10;99.90
1417;DHT22;703;51.162;13.574;2023-06-22T16:02:48;33.10;99.90